sensor_id;sensor_type;location;lat;lon;timestamp;pressure;altitude;pressure_sealevel;temperature;humidity
39223;BME280;24936;46.328;11.026;2023-01-31T00:00:40;94439.16;;;1.38;34.98
39223;BME280;24936;46.328;11.026;2023-01-31T00:03:05;94456.31;;;1.57;33.23
39223;BME280;24936;46.328;11.026;2023-01-31T00:05:31;94461.44;;;2.19;36.94
39223;BME280;24936;46.328;11.026;2023-01-31T00:07:56;94460.19;;;2.55;32.39
39223;BME280;24936;46.328;11.026;2023-01-31T00:10:21;94466.31;;;2.54;32.24
39223;BME280;24936;46.328;11.026;2023-01-31T00:12:47;94452.94;;;2.46;34.76
39223;BME280;24936;46.328;11.026;2023-01-31T00:15:12;94456.50;;;2.14;36.36
39223;BME280;24936;46.328;11.026;2023-01-31T00:17:40;94465.31;;;2.26;35.10
39223;BME280;24936;46.328;11.026;2023-01-31T00:20:06;94475.34;;;1.88;33.83
39223;BME280;24936;46.328;11.026;2023-01-31T00:22:32;94472.75;;;1.88;37.28
39223;BME280;24936;46.328;11.026;2023-01-31T00:24:57;94468.16;;;1.77;34.90
39223;BME280;24936;46.328;11.026;2023-01-31T00:27:23;94472.22;;;1.97;32.94
39223;BME280;24936;46.328;11.026;2023-01-31T00:29:48;94467.69;;;2.45;32.03
39223;BME280;24936;46.328;11.026;2023-01-31T00:32:14;94467.19;;;1.94;34.77
39223;BME280;24936;46.328;11.026;2023-01-31T00:34:39;94460.13;;;1.49;34.21
39223;BME280;24936;46.328;11.026;2023-01-31T00:37:04;94461.69;;;0.21;43.58
39223;BME280;24936;46.328;11.026;2023-01-31T00:39:30;94467.72;;;0.04;38.75
39223;BME280;24936;46.328;11.026;2023-01-31T00:41:55;94471.69;;;0.28;36.90
39223;BME280;24936;46.328;11.026;2023-01-31T00:44:20;94468.69;;;1.03;35.66
39223;BME280;24936;46.328;11.026;2023-01-31T00:46:46;94472.72;;;1.25;34.32
39223;BME280;24936;46.328;11.026;2023-01-31T00:49:11;94466.38;;;1.31;34.88
39223;BME280;24936;46.328;11.026;2023-01-31T00:51:36;94476.38;;;1.69;32.59
39223;BME280;24936;46.328;11.026;2023-01-31T00:54:02;94463.78;;;1.93;32.30
39223;BME280;24936;46.328;11.026;2023-01-31T00:56:27;94457.28;;;2.01;33.62
39223;BME280;24936;46.328;11.026;2023-01-31T00:58:53;94452.25;;;2.13;32.75
39223;BME280;24936;46.328;11.026;2023-01-31T01:01:25;94471.44;;;2.25;32.16
39223;BME280;24936;46.328;11.026;2023-01-31T01:03:51;94467.53;;;2.63;31.96
39223;BME280;24936;46.328;11.026;2023-01-31T01:06:16;94449.31;;;2.63;31.40
39223;BME280;24936;46.328;11.026;2023-01-31T01:08:42;94456.22;;;2.79;33.82
39223;BME280;24936;46.328;11.026;2023-01-31T01:11:14;94458.69;;;2.51;32.36
39223;BME280;24936;46.328;11.026;2023-01-31T01:13:41;94458.75;;;2.35;33.00
39223;BME280;24936;46.328;11.026;2023-01-31T01:16:11;94452.03;;;2.62;32.91
39223;BME280;24936;46.328;11.026;2023-01-31T01:18:36;94455.50;;;2.32;32.99
39223;BME280;24936;46.328;11.026;2023-01-31T01:21:10;94452.28;;;2.28;34.44
39223;BME280;24936;46.328;11.026;2023-01-31T01:23:37;94458.75;;;2.35;32.89
39223;BME280;24936;46.328;11.026;2023-01-31T01:26:03;94470.03;;;2.50;32.94
39223;BME280;24936;46.328;11.026;2023-01-31T01:28:32;94473.53;;;2.35;34.25
39223;BME280;24936;46.328;11.026;2023-01-31T01:30:58;94486.56;;;2.19;34.75
39223;BME280;24936;46.328;11.026;2023-01-31T01:33:23;94497.22;;;2.14;33.73
39223;BME280;24936;46.328;11.026;2023-01-31T01:35:49;94510.56;;;2.08;34.00
39223;BME280;24936;46.328;11.026;2023-01-31T01:38:14;94505.13;;;1.96;33.81
39223;BME280;24936;46.328;11.026;2023-01-31T01:40:40;94508.91;;;1.91;35.05
39223;BME280;24936;46.328;11.026;2023-01-31T01:43:08;94528.28;;;1.69;35.39
39223;BME280;24936;46.328;11.026;2023-01-31T01:45:34;94527.09;;;1.43;34.50
39223;BME280;24936;46.328;11.026;2023-01-31T01:48:03;94516.66;;;1.44;34.38
39223;BME280;24936;46.328;11.026;2023-01-31T01:50:38;94531.78;;;1.36;34.17
39223;BME280;24936;46.328;11.026;2023-01-31T01:53:15;94534.72;;;1.30;34.49
39223;BME280;24936;46.328;11.026;2023-01-31T01:55:46;94538.88;;;1.32;37.11
39223;BME280;24936;46.328;11.026;2023-01-31T02:01:13;94539.06;;;1.45;34.03
39223;BME280;24936;46.328;11.026;2023-01-31T02:03:42;94539.97;;;1.92;32.99
39223;BME280;24936;46.328;11.026;2023-01-31T02:06:08;94549.25;;;1.48;33.86
39223;BME280;24936;46.328;11.026;2023-01-31T02:08:35;94556.88;;;1.35;33.90
39223;BME280;24936;46.328;11.026;2023-01-31T02:11:14;94560.00;;;1.42;33.90
39223;BME280;24936;46.328;11.026;2023-01-31T02:13:42;94558.56;;;1.52;33.19
39223;BME280;24936;46.328;11.026;2023-01-31T02:16:09;94558.72;;;1.49;33.70
39223;BME280;24936;46.328;11.026;2023-01-31T02:18:35;94554.88;;;1.73;33.21
39223;BME280;24936;46.328;11.026;2023-01-31T02:42:40;94564.66;;;1.51;32.92
39223;BME280;24936;46.328;11.026;2023-01-31T02:50:59;94573.97;;;1.06;34.05
39223;BME280;24936;46.328;11.026;2023-01-31T02:53:40;94582.81;;;1.35;33.51
39223;BME280;24936;46.328;11.026;2023-01-31T02:56:15;94571.84;;;0.97;34.59
39223;BME280;24936;46.328;11.026;2023-01-31T02:58:56;94568.50;;;0.95;34.77
39223;BME280;24936;46.328;11.026;2023-01-31T03:01:26;94574.66;;;0.58;35.35
39223;BME280;24936;46.328;11.026;2023-01-31T03:03:57;94582.00;;;0.84;34.42
39223;BME280;24936;46.328;11.026;2023-01-31T03:11:49;94575.78;;;0.53;35.31
39223;BME280;24936;46.328;11.026;2023-01-31T03:17:03;94575.34;;;-0.10;36.35
39223;BME280;24936;46.328;11.026;2023-01-31T03:20:20;94577.53;;;-0.20;36.94
39223;BME280;24936;46.328;11.026;2023-01-31T03:23:21;94579.31;;;-0.03;36.49
39223;BME280;24936;46.328;11.026;2023-01-31T03:25:50;94582.69;;;0.17;36.01
39223;BME280;24936;46.328;11.026;2023-01-31T03:28:21;94586.66;;;0.07;37.08
39223;BME280;24936;46.328;11.026;2023-01-31T03:31:08;94590.56;;;-0.04;37.03
39223;BME280;24936;46.328;11.026;2023-01-31T03:33:37;94600.66;;;0.03;37.78
39223;BME280;24936;46.328;11.026;2023-01-31T03:36:27;94601.81;;;-0.22;38.77
39223;BME280;24936;46.328;11.026;2023-01-31T03:41:54;94595.78;;;-0.80;41.51
39223;BME280;24936;46.328;11.026;2023-01-31T03:52:54;94598.63;;;-0.10;39.06
39223;BME280;24936;46.328;11.026;2023-01-31T03:55:23;94606.22;;;-0.43;38.52
39223;BME280;24936;46.328;11.026;2023-01-31T03:57:53;94602.91;;;-0.47;38.15
39223;BME280;24936;46.328;11.026;2023-01-31T04:00:21;94604.09;;;-0.16;37.32
39223;BME280;24936;46.328;11.026;2023-01-31T04:03:09;94601.81;;;-0.22;38.75
39223;BME280;24936;46.328;11.026;2023-01-31T04:05:36;94604.16;;;-0.18;37.17
39223;BME280;24936;46.328;11.026;2023-01-31T04:08:02;94621.50;;;-0.20;36.78
39223;BME280;24936;46.328;11.026;2023-01-31T04:10:27;94631.09;;;-0.41;37.99
39223;BME280;24936;46.328;11.026;2023-01-31T04:12:53;94620.66;;;-0.58;38.40
39223;BME280;24936;46.328;11.026;2023-01-31T04:15:18;94624.59;;;-0.50;38.91
39223;BME280;24936;46.328;11.026;2023-01-31T04:17:44;94624.88;;;-0.37;38.21
39223;BME280;24936;46.328;11.026;2023-01-31T04:20:12;94635.72;;;-0.87;41.61
39223;BME280;24936;46.328;11.026;2023-01-31T04:22:37;94638.00;;;-1.21;41.60
39223;BME280;24936;46.328;11.026;2023-01-31T04:25:04;94635.38;;;-1.19;40.87
39223;BME280;24936;46.328;11.026;2023-01-31T04:27:30;94628.31;;;-1.36;41.98
39223;BME280;24936;46.328;11.026;2023-01-31T04:29:55;94631.09;;;-1.41;41.87
39223;BME280;24936;46.328;11.026;2023-01-31T04:32:21;94631.59;;;-1.12;41.04
39223;BME280;24936;46.328;11.026;2023-01-31T04:34:46;94625.41;;;-1.49;42.11
39223;BME280;24936;46.328;11.026;2023-01-31T04:37:12;94625.03;;;-1.19;40.64
39223;BME280;24936;46.328;11.026;2023-01-31T04:39:37;94633.16;;;-1.49;43.70
39223;BME280;24936;46.328;11.026;2023-01-31T04:42:03;94631.94;;;-1.83;43.20
39223;BME280;24936;46.328;11.026;2023-01-31T04:44:28;94632.47;;;-1.75;42.38
39223;BME280;24936;46.328;11.026;2023-01-31T04:46:53;94639.41;;;-2.44;46.83
39223;BME280;24936;46.328;11.026;2023-01-31T04:49:19;94633.31;;;-2.19;44.97
39223;BME280;24936;46.328;11.026;2023-01-31T04:51:44;94624.00;;;-1.79;44.35
39223;BME280;24936;46.328;11.026;2023-01-31T04:54:10;94628.72;;;-1.89;43.27
39223;BME280;24936;46.328;11.026;2023-01-31T04:56:35;94631.25;;;-1.66;42.75
39223;BME280;24936;46.328;11.026;2023-01-31T04:59:00;94633.38;;;-1.76;43.13
39223;BME280;24936;46.328;11.026;2023-01-31T05:01:26;94629.59;;;-1.90;43.73
39223;BME280;24936;46.328;11.026;2023-01-31T05:03:53;94625.34;;;-1.91;44.23
39223;BME280;24936;46.328;11.026;2023-01-31T05:06:18;94634.63;;;-2.09;45.19
39223;BME280;24936;46.328;11.026;2023-01-31T05:08:44;94640.53;;;-2.05;44.84
39223;BME280;24936;46.328;11.026;2023-01-31T05:11:09;94642.78;;;-1.75;43.52
39223;BME280;24936;46.328;11.026;2023-01-31T05:13:35;94643.69;;;-1.76;43.51
39223;BME280;24936;46.328;11.026;2023-01-31T05:16:07;94657.00;;;-2.55;47.76
39223;BME280;24936;46.328;11.026;2023-01-31T05:18:34;94656.31;;;-2.37;45.52
39223;BME280;24936;46.328;11.026;2023-01-31T05:21:00;94656.59;;;-2.21;44.67
39223;BME280;24936;46.328;11.026;2023-01-31T05:23:27;94656.94;;;-2.54;46.78
39223;BME280;24936;46.328;11.026;2023-01-31T05:25:52;94666.78;;;-3.14;50.78
39223;BME280;24936;46.328;11.026;2023-01-31T05:28:17;94682.81;;;-3.06;48.81
39223;BME280;24936;46.328;11.026;2023-01-31T05:30:43;94664.88;;;-2.84;51.33
39223;BME280;24936;46.328;11.026;2023-01-31T05:33:08;94672.06;;;-3.44;52.20
39223;BME280;24936;46.328;11.026;2023-01-31T05:35:34;94674.63;;;-3.43;50.92
39223;BME280;24936;46.328;11.026;2023-01-31T05:38:00;94677.47;;;-3.52;51.18
39223;BME280;24936;46.328;11.026;2023-01-31T05:40:25;94682.78;;;-3.57;51.41
39223;BME280;24936;46.328;11.026;2023-01-31T05:42:55;94690.00;;;-3.96;56.30
39223;BME280;24936;46.328;11.026;2023-01-31T05:45:22;94695.78;;;-3.88;55.08
39223;BME280;24936;46.328;11.026;2023-01-31T05:47:47;94701.25;;;-3.71;53.78
39223;BME280;24936;46.328;11.026;2023-01-31T05:50:14;94708.94;;;-3.97;55.76
39223;BME280;24936;46.328;11.026;2023-01-31T05:52:39;94719.66;;;-4.43;60.02
39223;BME280;24936;46.328;11.026;2023-01-31T05:55:05;94725.25;;;-4.28;57.32
39223;BME280;24936;46.328;11.026;2023-01-31T05:57:30;94721.53;;;-3.90;55.55
39223;BME280;24936;46.328;11.026;2023-01-31T05:59:56;94732.94;;;-3.70;55.74
39223;BME280;24936;46.328;11.026;2023-01-31T06:02:21;94731.00;;;-3.90;57.71
39223;BME280;24936;46.328;11.026;2023-01-31T06:04:47;94745.28;;;-4.10;58.40
39223;BME280;24936;46.328;11.026;2023-01-31T06:07:13;94740.38;;;-3.89;57.57
39223;BME280;24936;46.328;11.026;2023-01-31T06:09:39;94748.63;;;-4.06;58.47
39223;BME280;24936;46.328;11.026;2023-01-31T06:12:06;94749.78;;;-4.48;60.48
39223;BME280;24936;46.328;11.026;2023-01-31T06:14:36;94751.78;;;-4.26;58.84
39223;BME280;24936;46.328;11.026;2023-01-31T06:17:01;94756.72;;;-3.90;56.17
39223;BME280;24936;46.328;11.026;2023-01-31T06:19:28;94766.69;;;-4.09;57.97
39223;BME280;24936;46.328;11.026;2023-01-31T06:21:53;94779.81;;;-4.50;59.44
39223;BME280;24936;46.328;11.026;2023-01-31T06:24:19;94784.63;;;-4.69;60.83
39223;BME280;24936;46.328;11.026;2023-01-31T06:26:44;94788.78;;;-4.98;61.20
39223;BME280;24936;46.328;11.026;2023-01-31T06:29:09;94790.81;;;-5.11;62.82
39223;BME280;24936;46.328;11.026;2023-01-31T06:31:35;94802.13;;;-4.51;58.38
39223;BME280;24936;46.328;11.026;2023-01-31T06:34:00;94796.25;;;-3.94;55.83
39223;BME280;24936;46.328;11.026;2023-01-31T06:36:26;94796.00;;;-3.85;55.22
39223;BME280;24936;46.328;11.026;2023-01-31T06:38:51;94792.03;;;-3.67;53.60
39223;BME280;24936;46.328;11.026;2023-01-31T06:41:18;94801.69;;;-4.04;57.47
39223;BME280;24936;46.328;11.026;2023-01-31T06:43:44;94801.22;;;-4.18;56.44
39223;BME280;24936;46.328;11.026;2023-01-31T06:46:09;94807.06;;;-3.25;50.70
39223;BME280;24936;46.328;11.026;2023-01-31T06:48:35;94803.53;;;-2.95;49.07
39223;BME280;24936;46.328;11.026;2023-01-31T06:51:01;94802.25;;;-3.94;56.95
39223;BME280;24936;46.328;11.026;2023-01-31T06:53:26;94817.41;;;-4.46;58.58
39223;BME280;24936;46.328;11.026;2023-01-31T06:55:52;94825.00;;;-4.74;59.85
39223;BME280;24936;46.328;11.026;2023-01-31T06:58:17;94818.13;;;-4.74;59.44
39223;BME280;24936;46.328;11.026;2023-01-31T07:00:43;94821.41;;;-4.36;57.35
39223;BME280;24936;46.328;11.026;2023-01-31T07:03:08;94818.94;;;-4.39;57.83
39223;BME280;24936;46.328;11.026;2023-01-31T07:05:33;94822.47;;;-4.76;61.16
39223;BME280;24936;46.328;11.026;2023-01-31T07:07:59;94831.47;;;-4.59;59.21
39223;BME280;24936;46.328;11.026;2023-01-31T07:10:24;94830.66;;;-4.28;57.19
39223;BME280;24936;46.328;11.026;2023-01-31T07:12:50;94825.16;;;-4.16;55.55
39223;BME280;24936;46.328;11.026;2023-01-31T07:15:15;94824.53;;;-4.24;58.63
39223;BME280;24936;46.328;11.026;2023-01-31T07:17:41;94825.00;;;-4.41;58.67
39223;BME280;24936;46.328;11.026;2023-01-31T07:20:08;94834.91;;;-4.27;57.39
39223;BME280;24936;46.328;11.026;2023-01-31T07:22:34;94833.28;;;-3.70;53.22
39223;BME280;24936;46.328;11.026;2023-01-31T07:24:59;94836.34;;;-4.17;58.20
39223;BME280;24936;46.328;11.026;2023-01-31T07:27:25;94843.94;;;-4.46;60.72
39223;BME280;24936;46.328;11.026;2023-01-31T07:29:51;94833.84;;;-4.52;59.79
39223;BME280;24936;46.328;11.026;2023-01-31T07:32:16;94838.38;;;-4.28;57.38
39223;BME280;24936;46.328;11.026;2023-01-31T07:34:42;94834.91;;;-4.27;57.98
39223;BME280;24936;46.328;11.026;2023-01-31T07:37:07;94836.69;;;-4.30;58.84
39223;BME280;24936;46.328;11.026;2023-01-31T07:39:33;94840.19;;;-4.01;57.44
39223;BME280;24936;46.328;11.026;2023-01-31T07:41:58;94849.13;;;-4.14;58.61
39223;BME280;24936;46.328;11.026;2023-01-31T07:44:23;94853.03;;;-4.01;57.03
39223;BME280;24936;46.328;11.026;2023-01-31T07:46:49;94851.53;;;-3.48;54.76
39223;BME280;24936;46.328;11.026;2023-01-31T07:49:16;94857.28;;;-3.11;53.31
39223;BME280;24936;46.328;11.026;2023-01-31T07:51:41;94858.97;;;-3.39;55.96
39223;BME280;24936;46.328;11.026;2023-01-31T07:54:09;94862.09;;;-3.87;57.56
39223;BME280;24936;46.328;11.026;2023-01-31T07:56:35;94863.00;;;-3.90;57.57
39223;BME280;24936;46.328;11.026;2023-01-31T07:59:00;94854.34;;;-4.17;59.93
39223;BME280;24936;46.328;11.026;2023-01-31T08:01:26;94860.34;;;-3.87;58.14
39223;BME280;24936;46.328;11.026;2023-01-31T08:04:12;94860.28;;;-3.55;55.89
39223;BME280;24936;46.328;11.026;2023-01-31T08:06:39;94865.09;;;-3.43;55.97
39223;BME280;24936;46.328;11.026;2023-01-31T08:09:06;94855.78;;;-3.47;55.64
39223;BME280;24936;46.328;11.026;2023-01-31T08:11:32;94859.88;;;-3.13;53.56
39223;BME280;24936;46.328;11.026;2023-01-31T08:13:57;94862.78;;;-2.95;52.63
39223;BME280;24936;46.328;11.026;2023-01-31T08:16:22;94870.41;;;-2.65;51.67
39223;BME280;24936;46.328;11.026;2023-01-31T08:18:48;94877.56;;;-2.48;52.26
39223;BME280;24936;46.328;11.026;2023-01-31T08:21:15;94867.44;;;-2.27;50.38
39223;BME280;24936;46.328;11.026;2023-01-31T08:23:41;94878.22;;;-2.41;51.27
39223;BME280;24936;46.328;11.026;2023-01-31T08:26:19;94880.59;;;-2.35;52.61
39223;BME280;24936;46.328;11.026;2023-01-31T08:28:47;94861.25;;;-1.98;49.49
39223;BME280;24936;46.328;11.026;2023-01-31T08:31:21;94873.16;;;-1.94;49.32
39223;BME280;24936;46.328;11.026;2023-01-31T08:33:47;94872.59;;;-1.55;46.91
39223;BME280;24936;46.328;11.026;2023-01-31T08:36:19;94874.84;;;-1.45;46.29
39223;BME280;24936;46.328;11.026;2023-01-31T08:38:45;94871.47;;;-1.24;45.04
39223;BME280;24936;46.328;11.026;2023-01-31T08:41:11;94885.38;;;-1.28;44.25
39223;BME280;24936;46.328;11.026;2023-01-31T08:43:36;94884.91;;;-1.15;44.35
39223;BME280;24936;46.328;11.026;2023-01-31T08:46:03;94891.03;;;-1.18;44.38
39223;BME280;24936;46.328;11.026;2023-01-31T08:48:31;94883.50;;;-0.78;41.77
39223;BME280;24936;46.328;11.026;2023-01-31T08:51:03;94880.00;;;-0.77;42.69
39223;BME280;24936;46.328;11.026;2023-01-31T08:53:29;94891.25;;;-0.78;43.12
39223;BME280;24936;46.328;11.026;2023-01-31T08:56:02;94885.63;;;-0.67;42.19
39223;BME280;24936;46.328;11.026;2023-01-31T08:58:27;94875.31;;;-0.26;40.93
39223;BME280;24936;46.328;11.026;2023-01-31T09:00:53;94874.91;;;1.01;40.13
39223;BME280;24936;46.328;11.026;2023-01-31T09:03:19;94865.28;;;2.78;36.15
39223;BME280;24936;46.328;11.026;2023-01-31T09:05:44;94863.28;;;4.06;33.79
39223;BME280;24936;46.328;11.026;2023-01-31T09:08:10;94854.97;;;5.96;32.68
39223;BME280;24936;46.328;11.026;2023-01-31T09:10:36;94861.63;;;6.79;30.65
39223;BME280;24936;46.328;11.026;2023-01-31T09:13:02;94848.50;;;7.54;29.58
39223;BME280;24936;46.328;11.026;2023-01-31T09:15:28;94847.22;;;8.42;29.02
39223;BME280;24936;46.328;11.026;2023-01-31T09:17:53;94846.59;;;9.41;26.76
39223;BME280;24936;46.328;11.026;2023-01-31T09:20:19;94846.59;;;9.73;25.74
39223;BME280;24936;46.328;11.026;2023-01-31T09:22:44;94841.03;;;9.67;26.19
39223;BME280;24936;46.328;11.026;2023-01-31T09:25:10;94844.03;;;10.16;26.10
39223;BME280;24936;46.328;11.026;2023-01-31T09:27:36;94833.88;;;9.25;26.01
39223;BME280;24936;46.328;11.026;2023-01-31T09:30:08;94843.16;;;9.29;28.30
39223;BME280;24936;46.328;11.026;2023-01-31T09:32:34;94839.06;;;9.80;28.62
39223;BME280;24936;46.328;11.026;2023-01-31T09:35:04;94836.47;;;10.22;27.06
39223;BME280;24936;46.328;11.026;2023-01-31T09:37:29;94835.50;;;10.23;26.35
39223;BME280;24936;46.328;11.026;2023-01-31T09:39:56;94843.94;;;10.06;26.62
39223;BME280;24936;46.328;11.026;2023-01-31T09:42:32;94835.31;;;10.15;29.52
39223;BME280;24936;46.328;11.026;2023-01-31T09:45:10;94837.66;;;11.32;25.08
39223;BME280;24936;46.328;11.026;2023-01-31T09:47:38;94841.63;;;12.17;23.30
39223;BME280;24936;46.328;11.026;2023-01-31T09:50:21;94842.25;;;12.48;24.33
39223;BME280;24936;46.328;11.026;2023-01-31T09:52:48;94841.53;;;12.66;25.59
39223;BME280;24936;46.328;11.026;2023-01-31T09:55:16;94845.34;;;12.34;22.75
39223;BME280;24936;46.328;11.026;2023-01-31T10:03:02;94851.44;;;12.92;25.50
39223;BME280;24936;46.328;11.026;2023-01-31T10:10:59;94844.59;;;13.65;21.06
39223;BME280;24936;46.328;11.026;2023-01-31T10:13:36;94843.75;;;13.82;24.67
39223;BME280;24936;46.328;11.026;2023-01-31T10:16:30;94842.28;;;13.24;24.30
39223;BME280;24936;46.328;11.026;2023-01-31T10:19:06;94840.13;;;13.09;25.01
39223;BME280;24936;46.328;11.026;2023-01-31T10:21:41;94836.06;;;12.30;24.71
39223;BME280;24936;46.328;11.026;2023-01-31T10:24:32;94835.91;;;12.21;26.95
39223;BME280;24936;46.328;11.026;2023-01-31T10:27:06;94835.91;;;12.31;25.56
39223;BME280;24936;46.328;11.026;2023-01-31T10:29:39;94836.16;;;11.40;28.13
39223;BME280;24936;46.328;11.026;2023-01-31T10:35:28;94834.16;;;11.22;30.11
39223;BME280;24936;46.328;11.026;2023-01-31T10:38:03;94829.78;;;10.92;28.63
39223;BME280;24936;46.328;11.026;2023-01-31T10:40:39;94830.34;;;10.95;27.53
39223;BME280;24936;46.328;11.026;2023-01-31T10:43:17;94830.16;;;10.14;26.16
39223;BME280;24936;46.328;11.026;2023-01-31T10:45:45;94826.31;;;10.91;25.42
39223;BME280;24936;46.328;11.026;2023-01-31T10:53:38;94820.13;;;10.40;29.34
39223;BME280;24936;46.328;11.026;2023-01-31T10:58:44;94819.19;;;10.82;27.47
39223;BME280;24936;46.328;11.026;2023-01-31T11:01:11;94805.66;;;10.55;27.60
39223;BME280;24936;46.328;11.026;2023-01-31T11:03:38;94808.00;;;11.40;29.46
39223;BME280;24936;46.328;11.026;2023-01-31T11:06:04;94802.88;;;11.78;23.36
39223;BME280;24936;46.328;11.026;2023-01-31T11:08:47;94797.59;;;11.48;23.55
39223;BME280;24936;46.328;11.026;2023-01-31T11:11:18;94788.47;;;11.62;22.02
39223;BME280;24936;46.328;11.026;2023-01-31T11:13:56;94787.59;;;11.91;24.37
39223;BME280;24936;46.328;11.026;2023-01-31T11:16:22;94781.97;;;12.53;23.68
39223;BME280;24936;46.328;11.026;2023-01-31T11:18:49;94780.94;;;12.74;25.09
39223;BME280;24936;46.328;11.026;2023-01-31T11:21:25;94782.91;;;11.66;23.69
39223;BME280;24936;46.328;11.026;2023-01-31T11:23:56;94773.63;;;12.01;25.43
39223;BME280;24936;46.328;11.026;2023-01-31T11:26:35;94773.63;;;11.61;26.04
39223;BME280;24936;46.328;11.026;2023-01-31T11:29:08;94770.53;;;12.63;26.78
39223;BME280;24936;46.328;11.026;2023-01-31T11:31:39;94769.75;;;12.52;22.02
39223;BME280;24936;46.328;11.026;2023-01-31T11:34:22;94762.34;;;11.30;24.13
39223;BME280;24936;46.328;11.026;2023-01-31T11:36:49;94764.31;;;12.06;25.94
39223;BME280;24936;46.328;11.026;2023-01-31T11:39:30;94756.94;;;11.51;24.94
39223;BME280;24936;46.328;11.026;2023-01-31T11:41:57;94749.47;;;10.76;28.38
39223;BME280;24936;46.328;11.026;2023-01-31T11:44:28;94746.97;;;11.55;26.11
39223;BME280;24936;46.328;11.026;2023-01-31T11:47:04;94746.56;;;11.50;24.35
39223;BME280;24936;46.328;11.026;2023-01-31T11:49:39;94747.66;;;11.37;23.06
39223;BME280;24936;46.328;11.026;2023-01-31T11:52:16;94736.59;;;12.68;24.57
39223;BME280;24936;46.328;11.026;2023-01-31T11:54:48;94727.19;;;12.93;24.96
39223;BME280;24936;46.328;11.026;2023-01-31T11:57:24;94725.94;;;12.22;21.26
39223;BME280;24936;46.328;11.026;2023-01-31T11:59:52;94719.19;;;14.20;22.76
39223;BME280;24936;46.328;11.026;2023-01-31T12:05:08;94716.13;;;14.06;18.53
39223;BME280;24936;46.328;11.026;2023-01-31T12:07:49;94708.78;;;15.64;17.88
39223;BME280;24936;46.328;11.026;2023-01-31T12:13:16;94689.69;;;14.06;21.17
39223;BME280;24936;46.328;11.026;2023-01-31T12:15:54;94700.56;;;12.77;25.65
39223;BME280;24936;46.328;11.026;2023-01-31T12:21:15;94678.25;;;13.80;17.82
39223;BME280;24936;46.328;11.026;2023-01-31T12:42:56;94664.78;;;13.65;20.34
39223;BME280;24936;46.328;11.026;2023-01-31T12:51:10;94667.78;;;15.08;19.62
39223;BME280;24936;46.328;11.026;2023-01-31T12:53:53;94671.38;;;14.48;21.86
39223;BME280;24936;46.328;11.026;2023-01-31T12:59:04;94656.00;;;15.03;19.19
39223;BME280;24936;46.328;11.026;2023-01-31T13:07:24;94652.06;;;14.21;17.18
39223;BME280;24936;46.328;11.026;2023-01-31T13:09:56;94652.84;;;14.56;20.73
39223;BME280;24936;46.328;11.026;2023-01-31T13:12:27;94647.66;;;14.73;17.71
39223;BME280;24936;46.328;11.026;2023-01-31T13:15:02;94647.31;;;14.67;18.13
39223;BME280;24936;46.328;11.026;2023-01-31T13:17:31;94655.19;;;15.02;16.51
39223;BME280;24936;46.328;11.026;2023-01-31T13:20:02;94644.06;;;14.82;17.28
39223;BME280;24936;46.328;11.026;2023-01-31T13:22:45;94639.81;;;14.20;17.56
39223;BME280;24936;46.328;11.026;2023-01-31T13:25:21;94641.63;;;14.62;16.47
39223;BME280;24936;46.328;11.026;2023-01-31T13:27:53;94641.09;;;15.02;20.04
39223;BME280;24936;46.328;11.026;2023-01-31T13:32:48;94620.72;;;13.55;18.22
39223;BME280;24936;46.328;11.026;2023-01-31T13:35:52;94622.41;;;13.38;18.24
39223;BME280;24936;46.328;11.026;2023-01-31T13:38:19;94616.97;;;12.85;17.75
39223;BME280;24936;46.328;11.026;2023-01-31T13:40:52;94620.22;;;12.79;18.07
39223;BME280;24936;46.328;11.026;2023-01-31T13:43:19;94615.72;;;13.08;19.16
39223;BME280;24936;46.328;11.026;2023-01-31T13:45:49;94603.00;;;13.48;20.58
39223;BME280;24936;46.328;11.026;2023-01-31T13:51:02;94610.66;;;12.50;18.88
39223;BME280;24936;46.328;11.026;2023-01-31T13:53:31;94610.09;;;12.75;21.31
39223;BME280;24936;46.328;11.026;2023-01-31T13:56:01;94607.50;;;12.47;19.31
39223;BME280;24936;46.328;11.026;2023-01-31T13:58:34;94612.00;;;12.36;17.88
39223;BME280;24936;46.328;11.026;2023-01-31T14:01:05;94616.06;;;12.31;21.05
39223;BME280;24936;46.328;11.026;2023-01-31T14:14:54;94614.00;;;12.70;19.84
39223;BME280;24936;46.328;11.026;2023-01-31T14:24:57;94618.53;;;12.60;19.66
39223;BME280;24936;46.328;11.026;2023-01-31T14:32:33;94611.16;;;11.51;21.11
39223;BME280;24936;46.328;11.026;2023-01-31T14:38:22;94615.72;;;11.68;20.25
39223;BME280;24936;46.328;11.026;2023-01-31T14:40:59;94607.22;;;11.74;20.05
39223;BME280;24936;46.328;11.026;2023-01-31T14:49:46;94617.59;;;12.51;20.59
39223;BME280;24936;46.328;11.026;2023-01-31T14:55:57;94617.03;;;11.35;21.67
39223;BME280;24936;46.328;11.026;2023-01-31T14:57:54;94605.38;;;10.49;23.86
39223;BME280;24936;46.328;11.026;2023-01-31T15:00:24;94618.00;;;10.65;24.37
39223;BME280;24936;46.328;11.026;2023-01-31T15:08:01;94618.53;;;9.56;21.93
39223;BME280;24936;46.328;11.026;2023-01-31T15:10:55;94611.41;;;8.50;24.89
39223;BME280;24936;46.328;11.026;2023-01-31T15:18:44;94625.09;;;6.57;29.60
39223;BME280;24936;46.328;11.026;2023-01-31T15:21:19;94621.53;;;6.10;27.78
39223;BME280;24936;46.328;11.026;2023-01-31T15:23:46;94624.03;;;5.86;28.94
39223;BME280;24936;46.328;11.026;2023-01-31T15:26:14;94629.50;;;5.57;31.63
39223;BME280;24936;46.328;11.026;2023-01-31T15:28:42;94618.44;;;5.40;29.98
39223;BME280;24936;46.328;11.026;2023-01-31T15:31:22;94621.03;;;5.40;28.65
39223;BME280;24936;46.328;11.026;2023-01-31T15:33:52;94617.00;;;5.36;27.78
39223;BME280;24936;46.328;11.026;2023-01-31T15:39:21;94608.00;;;5.14;29.99
39223;BME280;24936;46.328;11.026;2023-01-31T15:41:48;94606.09;;;4.90;30.84
39223;BME280;24936;46.328;11.026;2023-01-31T15:44:32;94605.09;;;4.66;30.78
39223;BME280;24936;46.328;11.026;2023-01-31T15:46:57;94593.81;;;4.52;29.44
39223;BME280;24936;46.328;11.026;2023-01-31T15:49:26;94607.84;;;4.37;29.98
39223;BME280;24936;46.328;11.026;2023-01-31T15:52:21;94595.28;;;4.29;31.06